Terminal Aerodrome Forecast
Issued by NWS Central Illinois

Home | Current Version | Previous Version | Text Only | Print | Product List | Glossary On
Versions: 1 2 3 4 5 6 7 8 9 10 11 12 13 14 15 16 17 18 19 20
000
FTUS43 KILX 250500
TAFPIA
TAF
KPIA 250520Z 2506/2606 24008KT P6SM SCT007 SCT090 BKN110
     FM250700 20010KT 6SM -RA SCT007 OVC010
     FM251200 31014G20KT P6SM SCT010
     FM251400 30011KT P6SM SKC
     FM252100 27012KT P6SM SCT250
     FM260000 23008KT P6SM SCT250=

USA.gov is the U.S. government's official web portal to all federal, state and local government web resources and services.